Time;durP1;ratioP1;P1;durP2;ratioP2;P2;SDS_P1;SDS_P2;PMS_P1;PMS_P2;Temp;Humidity;BMP_temperature;BMP_pressure;BME280_temperature;BME280_humidity;BME280_pressure;Samples;Min_cycle;Max_cycle;Signal;HPM_P1;HPM_P2
2020/12/20 00:00:44;;;;;;;5.17;3.70;;;;;;;2.89;100.00;98716.58;3718525;79;44622;-67
2020/12/20 00:05:50;;;;;;;5.30;3.70;;;;;;;2.85;100.00;98711.58;3753175;78;44023;-68
2020/12/20 00:10:56;;;;;;;4.60;3.50;;;;;;;2.81;100.00;98711.39;3785800;77;43695;-67
2020/12/20 00:16:02;;;;;;;4.40;3.43;;;;;;;2.86;100.00;98710.62;3688517;79;44043;-67
2020/12/20 00:21:08;;;;;;;6.03;3.77;;;;;;;2.80;100.00;98717.22;3786242;77;43708;-67
2020/12/20 00:26:14;;;;;;;4.37;3.30;;;;;;;2.79;100.00;98711.52;3740082;79;44032;-67
2020/12/20 00:31:20;;;;;;;5.03;3.13;;;;;;;2.77;100.00;98719.58;3785667;77;43405;-67
2020/12/20 00:36:26;;;;;;;5.27;3.67;;;;;;;2.79;100.00;98708.85;3751888;79;43114;-67
2020/12/20 00:41:32;;;;;;;4.27;3.17;;;;;;;2.84;100.00;98722.67;3788107;77;44103;-67
2020/12/20 00:46:39;;;;;;;4.50;3.20;;;;;;;2.80;100.00;98727.86;3777844;77;44052;-67
2020/12/20 00:51:47;;;;;;;5.73;3.67;;;;;;;2.78;100.00;98723.95;3792039;76;43337;-67
2020/12/20 00:56:53;;;;;;;4.77;3.47;;;;;;;2.78;100.00;98711.98;3740703;79;43563;-67
2020/12/20 01:02:00;;;;;;;5.97;3.93;;;;;;;2.70;100.00;98712.98;3783912;76;43185;-67
2020/12/20 01:07:07;;;;;;;4.47;3.60;;;;;;;2.71;100.00;98716.48;3681508;79;43364;-67
2020/12/20 01:12:15;;;;;;;4.63;3.37;;;;;;;2.66;100.00;98726.11;3656900;80;26319;-67
2020/12/20 01:17:40;;;;;;;4.87;3.40;;;;;;;2.70;100.00;98726.29;3688507;79;26359;-66
2020/12/20 01:22:47;;;;;;;5.67;3.67;;;;;;;2.76;100.00;98717.03;3709272;79;44009;-66
2020/12/20 01:27:53;;;;;;;5.10;3.43;;;;;;;2.75;100.00;98729.50;3694451;79;44484;-69
2020/12/20 01:33:00;;;;;;;5.40;3.70;;;;;;;2.74;100.00;98730.45;3755903;77;26397;-67
2020/12/20 01:38:07;;;;;;;5.23;3.43;;;;;;;2.69;100.00;98729.06;3696722;78;43708;-67
2020/12/20 01:43:14;;;;;;;4.67;3.43;;;;;;;2.68;100.00;98728.19;3758262;79;43112;-67
2020/12/20 01:48:22;;;;;;;5.23;4.00;;;;;;;2.64;100.00;98724.52;3757741;79;43317;-67
2020/12/20 01:53:28;;;;;;;6.43;3.47;;;;;;;2.56;100.00;98721.04;3722736;79;43282;-67
2020/12/20 01:58:40;;;;;;;5.40;4.00;;;;;;;2.51;100.00;98726.67;3670187;78;42623;-67
2020/12/20 02:03:48;;;;;;;5.20;3.63;;;;;;;2.48;100.00;98729.53;3776253;77;26397;-67
2020/12/20 02:08:55;;;;;;;5.47;4.00;;;;;;;2.41;100.00;98747.69;3747738;78;26397;-67
2020/12/20 02:14:01;;;;;;;4.60;3.40;;;;;;;2.40;100.00;98732.72;3706993;79;43565;-67
2020/12/20 02:19:15;;;;;;;4.83;3.13;;;;;;;2.40;100.00;98736.71;3750530;77;26376;-66
2020/12/20 02:24:21;;;;;;;4.93;3.27;;;;;;;2.36;100.00;98736.53;3743795;77;43709;-68
2020/12/20 02:29:29;;;;;;;6.27;3.93;;;;;;;2.27;100.00;98733.16;3716060;78;26422;-68
2020/12/20 02:34:35;;;;;;;5.43;3.63;;;;;;;2.22;100.00;98718.84;3737884;77;43322;-68
2020/12/20 02:39:42;;;;;;;5.43;3.60;;;;;;;2.18;100.00;98715.99;3722377;79;43281;-68
2020/12/20 02:44:48;;;;;;;4.83;3.40;;;;;;;2.18;100.00;98709.81;3746551;79;44130;-66
2020/12/20 02:49:55;;;;;;;5.20;3.60;;;;;;;2.17;100.00;98712.12;3750746;78;43353;-66
2020/12/20 02:55:11;;;;;;;4.83;3.50;;;;;;;2.14;100.00;98715.81;3734837;77;26471;-66
2020/12/20 03:00:20;;;;;;;5.30;3.53;;;;;;;2.15;100.00;98713.07;3714529;78;26382;-68
2020/12/20 03:05:26;;;;;;;4.07;3.10;;;;;;;2.12;100.00;98717.25;3697727;79;43327;-66
2020/12/20 03:10:33;;;;;;;5.37;3.60;;;;;;;2.04;100.00;98723.55;3653798;80;27345;-68
2020/12/20 03:15:43;;;;;;;5.90;3.53;;;;;;;2.09;100.00;98721.42;3676210;80;43330;-66
2020/12/20 03:20:50;;;;;;;5.07;3.50;;;;;;;2.06;100.00;98714.98;3674982;80;26825;-66
2020/12/20 03:25:56;;;;;;;5.20;3.47;;;;;;;2.00;100.00;98702.94;3682098;79;43673;-67
2020/12/20 03:31:20;;;;;;;5.30;3.60;;;;;;;1.95;100.00;98710.38;3686502;79;26842;-66
2020/12/20 03:36:28;;;;;;;5.47;3.80;;;;;;;1.94;100.00;98718.46;3676155;79;26830;-67
2020/12/20 03:41:34;;;;;;;5.60;4.03;;;;;;;1.99;100.00;98716.34;3629853;80;43662;-67
2020/12/20 03:46:42;;;;;;;5.23;3.73;;;;;;;1.90;100.00;98723.09;3680813;80;44173;-67
2020/12/20 03:51:49;;;;;;;7.07;4.13;;;;;;;1.89;100.00;98729.36;3664258;79;43515;-67
2020/12/20 03:56:56;;;;;;;5.10;3.70;;;;;;;1.94;100.00;98730.42;3679238;79;26531;-67
2020/12/20 04:02:02;;;;;;;5.70;3.67;;;;;;;1.90;100.00;98730.23;3684055;79;43546;-67
2020/12/20 04:07:08;;;;;;;5.07;3.73;;;;;;;1.86;100.00;98728.25;3724954;79;44013;-67
2020/12/20 04:12:16;;;;;;;5.50;3.70;;;;;;;1.83;100.00;98723.96;3613209;80;26395;-67
2020/12/20 04:17:23;;;;;;;5.60;4.03;;;;;;;1.77;100.00;98731.02;3688269;79;44091;-67
2020/12/20 04:22:30;;;;;;;5.77;3.70;;;;;;;1.81;100.00;98736.52;3750926;77;43351;-67
2020/12/20 04:27:38;;;;;;;5.40;3.80;;;;;;;1.78;100.00;98733.18;3734849;77;26318;-67
2020/12/20 04:32:44;;;;;;;5.77;3.30;;;;;;;1.78;100.00;98743.80;3756941;77;43812;-67
2020/12/20 04:37:51;;;;;;;5.80;3.70;;;;;;;1.75;100.00;98736.05;3750663;77;43355;-67
2020/12/20 04:43:04;;;;;;;5.27;3.73;;;;;;;1.72;100.00;98736.23;3758436;78;26447;-67
2020/12/20 04:48:11;;;;;;;6.00;4.00;;;;;;;1.64;100.00;98742.03;3756477;77;43984;-67
2020/12/20 04:53:20;;;;;;;5.77;3.77;;;;;;;1.65;100.00;98732.62;3752770;76;26463;-67
2020/12/20 04:58:35;;;;;;;5.37;3.53;;;;;;;1.59;100.00;98729.05;3755945;77;26389;-67
2020/12/20 05:03:41;;;;;;;6.30;3.90;;;;;;;1.62;100.00;98731.52;3745436;77;44422;-67
2020/12/20 05:08:50;;;;;;;6.27;4.07;;;;;;;1.52;100.00;98723.27;3756260;77;43729;-67
2020/12/20 05:14:00;;;;;;;7.00;4.20;;;;;;;1.53;100.00;98728.09;3738263;79;43681;-67
2020/12/20 05:19:15;;;;;;;7.10;4.20;;;;;;;1.63;100.00;98731.90;3756483;77;26798;-67
2020/12/20 05:24:27;;;;;;;6.57;4.20;;;;;;;1.66;100.00;98714.42;3742557;79;42914;-67
2020/12/20 05:29:35;;;;;;;7.57;4.33;;;;;;;1.67;100.00;98703.34;3760885;77;26562;-67
2020/12/20 05:34:45;;;;;;;6.43;3.93;;;;;;;1.71;100.00;98706.16;3744983;78;43707;-67
2020/12/20 05:39:51;;;;;;;7.90;4.60;;;;;;;1.76;100.00;98700.08;3759531;77;44061;-67
2020/12/20 05:45:18;;;;;;;7.60;4.67;;;;;;;1.89;100.00;98708.59;3727704;78;26372;-67
2020/12/20 05:50:32;;;;;;;6.60;4.20;;;;;;;1.97;100.00;98699.64;3758574;77;26823;-67
2020/12/20 05:55:40;;;;;;;6.67;4.07;;;;;;;2.06;100.00;98692.38;3698464;79;42933;-67
2020/12/20 06:00:48;;;;;;;7.20;4.33;;;;;;;2.12;100.00;98700.43;3751930;77;43456;-67
2020/12/20 06:05:55;;;;;;;6.73;4.40;;;;;;;2.21;100.00;98699.85;3699850;79;43977;-67
2020/12/20 06:11:04;;;;;;;7.20;4.47;;;;;;;2.25;100.00;98701.33;3747921;77;44020;-68
2020/12/20 06:16:15;;;;;;;7.00;4.67;;;;;;;2.29;100.00;98696.69;3742187;78;43986;-67
2020/12/20 06:21:26;;;;;;;5.87;4.10;;;;;;;2.31;100.00;98696.09;3698413;79;43985;-67
2020/12/20 06:26:35;;;;;;;6.37;4.30;;;;;;;2.32;100.00;98700.45;3745144;78;43677;-67
2020/12/20 06:31:44;;;;;;;8.10;4.50;;;;;;;2.37;100.00;98708.98;3697277;79;43416;-67
2020/12/20 06:36:52;;;;;;;6.47;4.17;;;;;;;2.42;100.00;98706.02;3748467;77;43670;-67
2020/12/20 06:41:58;;;;;;;7.70;4.27;;;;;;;2.43;100.00;98709.89;3753578;77;44085;-67
2020/12/20 06:47:05;;;;;;;7.43;4.33;;;;;;;2.48;100.00;98708.25;3715341;79;44016;-67
2020/12/20 06:52:28;;;;;;;6.40;4.13;;;;;;;2.46;100.00;98708.36;3740084;77;43313;-67
2020/12/20 06:57:36;;;;;;;6.43;4.30;;;;;;;2.47;100.00;98711.86;3740596;77;43689;-66
2020/12/20 07:02:48;;;;;;;7.33;4.30;;;;;;;2.48;100.00;98717.55;3742068;77;44092;-66
2020/12/20 07:08:14;;;;;;;6.77;4.33;;;;;;;2.56;100.00;98729.89;3746914;77;44591;-66
2020/12/20 07:13:35;;;;;;;6.07;4.10;;;;;;;2.60;100.00;98733.19;3760805;77;44215;-66
2020/12/20 07:18:50;;;;;;;6.17;4.17;;;;;;;2.62;100.00;98719.31;3736677;76;44032;-66
2020/12/20 07:24:02;;;;;;;7.23;4.53;;;;;;;2.65;100.00;98715.59;3746590;77;44484;-67
2020/12/20 07:29:09;;;;;;;6.03;4.23;;;;;;;2.66;100.00;98715.47;3744384;77;44700;-67
2020/12/20 07:34:15;;;;;;;7.30;4.50;;;;;;;2.63;100.00;98710.38;3661709;77;43018;-66
2020/12/20 07:39:21;;;;;;;7.73;4.93;;;;;;;2.64;100.00;98709.88;3545984;81;42960;-66
2020/12/20 07:44:27;;;;;;;7.60;4.70;;;;;;;2.64;100.00;98708.09;3536827;81;43690;-66
2020/12/20 07:49:33;;;;;;;7.97;4.90;;;;;;;2.69;100.00;98712.61;3559569;81;44132;-67
2020/12/20 07:54:40;;;;;;;7.53;4.50;;;;;;;2.78;100.00;98710.64;3495669;82;44134;-67
2020/12/20 07:59:46;;;;;;;8.37;4.90;;;;;;;2.85;100.00;98715.07;3563874;81;43678;-67
2020/12/20 08:04:53;;;;;;;6.87;4.80;;;;;;;2.89;100.00;98707.72;3569577;81;42863;-67
2020/12/20 08:09:59;;;;;;;7.13;4.33;;;;;;;2.91;100.00;98711.13;3571135;81;44072;-66
2020/12/20 08:15:07;;;;;;;6.70;4.50;;;;;;;3.03;100.00;98703.64;3579204;81;43725;-63
2020/12/20 08:20:14;;;;;;;7.13;4.83;;;;;;;3.07;100.00;98705.14;3588307;81;42761;-65
2020/12/20 08:25:20;;;;;;;8.67;5.27;;;;;;;3.19;100.00;98705.24;3516538;82;43371;-64
2020/12/20 08:30:26;;;;;;;7.80;4.50;;;;;;;3.28;100.00;98699.27;3553031;83;44010;-64
2020/12/20 08:35:32;;;;;;;6.30;4.07;;;;;;;3.43;100.00;98698.65;3557681;81;44031;-65
2020/12/20 08:40:38;;;;;;;7.03;4.57;;;;;;;3.55;100.00;98698.27;3551339;81;44035;-65
2020/12/20 08:45:45;;;;;;;7.03;4.63;;;;;;;3.64;100.00;98705.59;3530748;82;44074;-66
2020/12/20 08:50:57;;;;;;;7.03;5.10;;;;;;;3.63;100.00;98706.55;3564789;81;44129;-64
2020/12/20 08:56:10;;;;;;;8.60;5.23;;;;;;;3.62;100.00;98710.67;3510119;82;43693;-67
2020/12/20 09:01:19;;;;;;;6.17;4.30;;;;;;;3.52;100.00;98715.33;3557963;81;43120;-65
2020/12/20 09:06:25;;;;;;;7.37;4.70;;;;;;;3.55;100.00;98717.75;3561271;81;42976;-67
2020/12/20 09:11:31;;;;;;;8.23;5.20;;;;;;;3.55;100.00;98707.59;3573121;81;44074;-63
2020/12/20 09:16:43;;;;;;;7.63;4.73;;;;;;;3.53;100.00;98717.50;3530205;81;43993;-68
2020/12/20 09:21:51;;;;;;;7.30;4.73;;;;;;;3.57;100.00;98715.00;3551712;81;43343;-67
2020/12/20 09:27:03;;;;;;;8.23;5.53;;;;;;;3.53;100.00;98718.84;3550644;81;42983;-71
2020/12/20 09:32:12;;;;;;;8.63;5.43;;;;;;;3.55;100.00;98726.24;3488227;83;44058;-72
2020/12/20 09:37:18;;;;;;;7.47;4.73;;;;;;;3.60;100.00;98728.58;3549520;81;44122;-72
2020/12/20 09:42:25;;;;;;;7.33;4.60;;;;;;;3.59;100.00;98734.86;3508971;83;43433;-73
2020/12/20 09:47:31;;;;;;;6.90;4.87;;;;;;;3.62;100.00;98729.32;3560755;81;44432;-73
2020/12/20 09:52:37;;;;;;;6.53;4.40;;;;;;;3.61;100.00;98728.45;3511938;82;44100;-73
2020/12/20 09:57:43;;;;;;;7.60;4.90;;;;;;;3.60;100.00;98717.42;3559467;81;44191;-73
2020/12/20 10:02:49;;;;;;;7.73;4.60;;;;;;;3.63;100.00;98717.21;3593132;81;44033;-72
2020/12/20 10:07:55;;;;;;;6.43;4.47;;;;;;;3.68;100.00;98716.88;3495891;83;44071;-72
2020/12/20 10:13:00;;;;;;;6.67;4.43;;;;;;;3.63;100.00;98723.88;3544180;82;43680;-72
2020/12/20 10:18:06;;;;;;;7.07;4.83;;;;;;;3.65;100.00;98725.08;3545321;82;44083;-71
2020/12/20 10:23:13;;;;;;;6.53;4.47;;;;;;;3.63;100.00;98729.70;3556394;81;44425;-73
2020/12/20 10:28:20;;;;;;;7.90;5.00;;;;;;;3.66;100.00;98738.31;3569755;82;44386;-72
2020/12/20 10:33:26;;;;;;;6.57;4.27;;;;;;;3.65;100.00;98732.61;3553297;82;44016;-73
2020/12/20 10:38:32;;;;;;;6.97;4.90;;;;;;;3.71;100.00;98732.66;3543954;82;43360;-73
2020/12/20 10:43:38;;;;;;;6.77;4.60;;;;;;;3.81;100.00;98715.53;3536429;82;43751;-73
2020/12/20 10:48:44;;;;;;;7.13;4.87;;;;;;;3.88;100.00;98712.78;3545028;82;44793;-73
2020/12/20 10:53:51;;;;;;;6.27;4.00;;;;;;;3.96;100.00;98705.06;3544492;83;43422;-73
2020/12/20 10:58:57;;;;;;;7.17;4.53;;;;;;;4.09;100.00;98701.03;3544360;82;43376;-73
2020/12/20 11:04:02;;;;;;;6.33;4.40;;;;;;;4.19;100.00;98708.34;3544321;82;43315;-71
2020/12/20 11:09:08;;;;;;;7.70;4.20;;;;;;;4.30;100.00;98703.06;3558620;81;44170;-73
2020/12/20 11:14:14;;;;;;;6.67;4.23;;;;;;;4.41;100.00;98683.59;3493436;82;44039;-73
2020/12/20 11:19:23;;;;;;;7.40;4.60;;;;;;;4.50;100.00;98678.03;3500905;83;44055;-71
2020/12/20 11:24:29;;;;;;;7.30;4.20;;;;;;;4.51;100.00;98675.73;3471485;83;44108;-72
2020/12/20 11:29:35;;;;;;;5.97;4.30;;;;;;;4.51;100.00;98677.06;3465065;83;44026;-72
2020/12/20 11:34:42;;;;;;;5.40;3.87;;;;;;;4.56;99.98;98690.42;3470537;83;44075;-72
2020/12/20 11:39:48;;;;;;;5.57;3.90;;;;;;;4.60;98.67;98685.70;3486545;83;43317;-74
2020/12/20 11:44:54;;;;;;;6.83;4.23;;;;;;;4.66;97.60;98683.05;3494613;83;43155;-72
2020/12/20 11:50:00;;;;;;;6.00;4.10;;;;;;;4.72;97.57;98679.92;3491418;83;43689;-76
2020/12/20 11:55:06;;;;;;;5.57;3.83;;;;;;;4.82;97.55;98674.23;3487779;83;43314;-70
2020/12/20 12:00:13;;;;;;;7.33;4.33;;;;;;;4.86;95.53;98670.84;3491683;83;44055;-72
2020/12/20 12:05:20;;;;;;;7.03;4.50;;;;;;;4.89;96.30;98664.77;3481300;83;44648;-72
2020/12/20 12:10:26;;;;;;;7.37;4.50;;;;;;;4.97;96.36;98658.00;3474791;83;44028;-72
2020/12/20 12:15:33;;;;;;;6.80;3.97;;;;;;;5.01;97.04;98648.77;3551893;81;43621;-72
2020/12/20 12:20:39;;;;;;;4.50;3.37;;;;;;;5.02;96.90;98643.79;3496480;83;43381;-72
2020/12/20 12:25:45;;;;;;;4.67;3.33;;;;;;;5.01;94.20;98650.09;3539447;81;43959;-72
2020/12/20 12:30:50;;;;;;;6.30;3.40;;;;;;;5.05;94.33;98648.89;3545211;81;44059;-73
2020/12/20 12:35:57;;;;;;;6.47;4.30;;;;;;;5.03;94.23;98648.16;3513190;82;44675;-72
2020/12/20 12:41:04;;;;;;;5.53;3.80;;;;;;;5.05;96.04;98652.44;3577779;81;44017;-72
2020/12/20 12:46:12;;;;;;;4.73;3.70;;;;;;;4.96;94.02;98655.80;3555427;81;43398;-74
2020/12/20 12:51:23;;;;;;;5.43;3.67;;;;;;;5.00;94.73;98664.45;3495601;83;43461;-73
2020/12/20 12:56:29;;;;;;;6.53;3.90;;;;;;;5.05;96.40;98660.45;3560854;81;43726;-73
2020/12/20 13:01:35;;;;;;;5.93;3.87;;;;;;;5.05;95.79;98663.58;3500115;83;44055;-74
2020/12/20 13:06:41;;;;;;;7.10;3.90;;;;;;;5.07;97.16;98657.64;3536644;81;43681;-73
2020/12/20 13:11:47;;;;;;;6.03;4.00;;;;;;;5.01;94.38;98658.98;3576499;81;42762;-73
2020/12/20 13:16:53;;;;;;;5.70;4.03;;;;;;;5.06;95.60;98658.61;3571531;81;44270;-72
2020/12/20 13:21:59;;;;;;;5.83;4.10;;;;;;;5.02;94.46;98650.47;3511571;82;43431;-72
2020/12/20 13:27:05;;;;;;;5.80;3.77;;;;;;;5.03;94.61;98664.19;3500804;82;44092;-72
2020/12/20 13:32:11;;;;;;;5.87;4.10;;;;;;;5.08;97.12;98666.02;3444881;84;44071;-72
2020/12/20 13:37:16;;;;;;;5.87;3.70;;;;;;;5.07;97.38;98669.66;3545252;81;44422;-73
2020/12/20 13:42:24;;;;;;;5.80;3.87;;;;;;;5.04;96.53;98676.56;3588988;81;43257;-73
2020/12/20 13:47:34;;;;;;;6.63;4.07;;;;;;;5.07;97.42;98673.16;3592003;81;44091;-67
2020/12/20 13:52:40;;;;;;;5.70;4.20;;;;;;;5.05;98.44;98671.59;3591275;81;44054;-68
2020/12/20 13:57:47;;;;;;;4.93;3.80;;;;;;;5.05;98.11;98674.27;3598234;81;44391;-66
2020/12/20 14:02:59;;;;;;;5.40;3.80;;;;;;;5.03;98.24;98684.21;3572434;81;43158;-66
2020/12/20 14:08:06;;;;;;;6.17;3.93;;;;;;;5.07;99.61;98699.88;3597787;81;43761;-66
2020/12/20 14:13:13;;;;;;;7.50;4.30;;;;;;;5.06;99.49;98682.64;3626678;81;43341;-72
2020/12/20 14:18:21;;;;;;;6.67;4.43;;;;;;;5.01;99.18;98692.82;3631642;81;42993;-72
2020/12/20 14:23:29;;;;;;;5.47;3.80;;;;;;;5.11;100.00;98696.97;3537274;82;44064;-72
2020/12/20 14:28:49;;;;;;;8.63;4.67;;;;;;;5.03;100.00;98718.46;3511010;84;43686;-72
2020/12/20 14:33:58;;;;;;;9.33;5.20;;;;;;;4.97;99.38;98702.06;3591873;81;43410;-72
2020/12/20 14:39:05;;;;;;;6.23;4.50;;;;;;;4.96;100.00;98703.03;3560306;81;44077;-72
2020/12/20 14:44:11;;;;;;;7.50;5.10;;;;;;;4.99;100.00;98706.30;3538022;82;42945;-72
2020/12/20 14:49:20;;;;;;;6.07;4.03;;;;;;;4.96;100.00;98703.03;3473650;84;44106;-73
2020/12/20 14:54:26;;;;;;;7.53;4.37;;;;;;;4.92;100.00;98705.92;3462558;84;43424;-73
2020/12/20 14:59:34;;;;;;;7.57;4.97;;;;;;;4.89;100.00;98716.83;3524239;83;44080;-71
2020/12/20 15:04:41;;;;;;;5.63;4.30;;;;;;;4.80;100.00;98722.88;3547191;81;44019;-73
2020/12/20 15:09:47;;;;;;;8.57;4.90;;;;;;;4.74;100.00;98727.38;3548627;81;44418;-72
2020/12/20 15:14:54;;;;;;;7.33;4.83;;;;;;;4.74;100.00;98750.05;3547984;81;42904;-72
2020/12/20 15:20:00;;;;;;;6.73;4.50;;;;;;;4.70;100.00;98747.24;3550760;81;44089;-72
2020/12/20 15:25:09;;;;;;;6.80;4.80;;;;;;;4.70;100.00;98744.57;3554010;81;43276;-71
2020/12/20 15:30:16;;;;;;;6.43;4.60;;;;;;;4.67;100.00;98738.13;3497759;83;43322;-72
2020/12/20 15:35:22;;;;;;;7.70;5.20;;;;;;;4.70;100.00;98728.56;3562260;81;43407;-73
2020/12/20 15:40:28;;;;;;;7.40;5.43;;;;;;;4.63;100.00;98736.17;3553203;81;43103;-72
2020/12/20 15:45:34;;;;;;;8.07;5.07;;;;;;;4.60;100.00;98729.27;3521708;82;43417;-72
2020/12/20 15:50:47;;;;;;;7.13;4.97;;;;;;;4.64;100.00;98740.55;3546163;81;43999;-72
2020/12/20 15:55:53;;;;;;;6.93;4.73;;;;;;;4.56;100.00;98745.63;3550558;81;43675;-72
2020/12/20 16:01:04;;;;;;;6.80;4.90;;;;;;;4.53;100.00;98737.84;3479060;83;43330;-74
2020/12/20 16:06:11;;;;;;;7.20;5.20;;;;;;;4.57;100.00;98732.66;3541319;81;43387;-75
2020/12/20 16:11:19;;;;;;;8.30;6.00;;;;;;;4.59;100.00;98744.91;3512745;83;43529;-74
2020/12/20 16:16:28;;;;;;;7.47;5.20;;;;;;;4.59;100.00;98745.37;3587825;81;26315;-73
2020/12/20 16:21:35;;;;;;;7.57;5.40;;;;;;;4.60;100.00;98745.27;3586202;81;43763;-73
2020/12/20 16:26:42;;;;;;;8.40;5.67;;;;;;;4.61;100.00;98741.64;3588426;81;43710;-73
2020/12/20 16:31:56;;;;;;;8.50;5.70;;;;;;;4.62;100.00;98742.48;3566809;81;44119;-74
2020/12/20 16:37:02;;;;;;;7.23;5.33;;;;;;;4.61;100.00;98750.98;3568357;81;44032;-69
2020/12/20 16:42:08;;;;;;;8.37;5.13;;;;;;;4.58;100.00;98757.88;3586566;81;44032;-68
2020/12/20 16:47:15;;;;;;;8.80;5.40;;;;;;;4.58;100.00;98751.70;3488825;82;43203;-74
2020/12/20 16:52:21;;;;;;;8.53;5.50;;;;;;;4.60;100.00;98753.28;3568736;81;43436;-73
2020/12/20 16:57:27;;;;;;;10.97;6.57;;;;;;;4.60;100.00;98757.28;3568848;81;43964;-69
2020/12/20 17:02:33;;;;;;;10.73;5.97;;;;;;;4.55;100.00;98758.59;3497778;82;44428;-71
2020/12/20 17:07:41;;;;;;;7.53;5.63;;;;;;;4.56;100.00;98747.80;3564858;81;43681;-73
2020/12/20 17:12:49;;;;;;;9.37;5.90;;;;;;;4.50;100.00;98755.40;3506020;82;43697;-69
2020/12/20 17:17:56;;;;;;;7.90;5.80;;;;;;;4.55;100.00;98758.59;3544242;82;44441;-72
2020/12/20 17:23:02;;;;;;;9.13;5.93;;;;;;;4.57;100.00;98762.00;3545578;82;44039;-72
2020/12/20 17:28:08;;;;;;;8.07;5.77;;;;;;;4.58;100.00;98760.54;3544721;82;44137;-70
2020/12/20 17:33:16;;;;;;;7.60;5.40;;;;;;;4.55;100.00;98767.93;3544109;82;43404;-72
2020/12/20 17:38:22;;;;;;;8.17;5.37;;;;;;;4.57;100.00;98764.17;3544213;82;44057;-73
2020/12/20 17:43:28;;;;;;;9.60;6.23;;;;;;;4.56;100.00;98776.31;3544585;82;43395;-75
2020/12/20 17:48:34;;;;;;;8.33;5.73;;;;;;;4.51;100.00;98769.98;3544539;82;43367;-74
2020/12/20 17:53:42;;;;;;;8.57;5.47;;;;;;;4.51;100.00;98778.45;3547972;82;42860;-74
2020/12/20 17:58:48;;;;;;;7.97;5.83;;;;;;;4.51;100.00;98776.66;3546397;82;43276;-75
2020/12/20 18:03:55;;;;;;;8.63;5.87;;;;;;;4.49;100.00;98775.91;3546530;82;43213;-72
2020/12/20 18:09:01;;;;;;;8.43;5.80;;;;;;;4.51;100.00;98766.45;3546552;82;43601;-69
2020/12/20 18:14:07;;;;;;;9.50;5.50;;;;;;;4.49;100.00;98765.23;3565267;81;44021;-69
2020/12/20 18:19:13;;;;;;;8.97;5.87;;;;;;;4.48;100.00;98770.20;3594000;81;43277;-69
2020/12/20 18:24:22;;;;;;;7.60;5.50;;;;;;;4.42;100.00;98776.84;3571881;81;42932;-69
2020/12/20 18:29:30;;;;;;;9.63;6.20;;;;;;;4.45;100.00;98777.09;3539357;82;43421;-74
2020/12/20 18:34:37;;;;;;;8.50;5.83;;;;;;;4.48;100.00;98789.72;3569564;81;43431;-66
2020/12/20 18:39:45;;;;;;;8.73;5.60;;;;;;;4.50;100.00;98802.97;3543006;83;44090;-67
2020/12/20 18:44:51;;;;;;;8.97;5.83;;;;;;;4.57;100.00;98808.70;3547317;81;43445;-66
2020/12/20 18:49:59;;;;;;;10.23;6.07;;;;;;;4.65;100.00;98817.45;3554330;81;43685;-69
2020/12/20 18:55:25;;;;;;;9.77;6.20;;;;;;;4.71;100.00;98821.01;3525995;80;202818;-66
2020/12/20 19:00:35;;;;;;;9.80;6.30;;;;;;;4.74;100.00;98808.78;3713364;78;44518;-21
2020/12/20 19:05:39;;;;;;;8.43;5.60;;;;;;;4.76;100.00;98820.20;3763476;78;44426;-21
2020/12/20 19:10:45;;;;;;;9.43;6.07;;;;;;;4.79;100.00;98817.28;3763285;78;43725;-21
2020/12/20 19:15:50;;;;;;;9.47;6.27;;;;;;;4.84;100.00;98824.47;3763365;78;43463;-21
2020/12/20 19:20:57;;;;;;;9.40;6.00;;;;;;;4.82;100.00;98831.73;3764209;78;43685;-21
2020/12/20 19:26:03;;;;;;;8.70;6.13;;;;;;;4.88;100.00;98839.77;3766928;77;43670;-21
2020/12/20 19:31:09;;;;;;;11.50;7.70;;;;;;;4.86;100.00;98838.56;3766371;77;44029;-21
2020/12/20 19:36:16;;;;;;;9.13;6.40;;;;;;;4.86;100.00;98850.58;3770389;77;42766;-21
2020/12/20 19:41:22;;;;;;;9.30;5.80;;;;;;;4.85;100.00;98855.55;3789893;77;44692;-21
2020/12/20 19:46:28;;;;;;;8.33;6.27;;;;;;;4.88;100.00;98863.80;3803213;76;43685;-19
2020/12/20 19:51:36;;;;;;;9.97;6.60;;;;;;;4.97;100.00;98866.27;3799062;77;43723;-20
2020/12/20 19:56:43;;;;;;;10.10;6.00;;;;;;;4.89;100.00;98870.34;3788859;77;43369;-20
2020/12/20 20:01:50;;;;;;;10.30;6.70;;;;;;;4.82;100.00;98871.78;3683960;79;43349;-20
2020/12/20 20:06:58;;;;;;;10.70;7.50;;;;;;;4.78;100.00;98877.84;3684369;80;44611;-19
2020/12/20 20:12:04;;;;;;;9.77;6.97;;;;;;;4.70;100.00;98888.70;3689333;79;43686;-19
2020/12/20 20:17:10;;;;;;;10.00;7.10;;;;;;;4.57;100.00;98901.60;3619852;80;43360;-20
2020/12/20 20:22:16;;;;;;;10.50;7.57;;;;;;;4.44;100.00;98895.44;3686845;79;43672;-20
2020/12/20 20:27:27;;;;;;;11.23;7.57;;;;;;;4.42;100.00;98897.36;3617352;80;44075;-20
2020/12/20 20:32:33;;;;;;;10.87;7.23;;;;;;;4.36;100.00;98899.16;3699953;79;43723;-20
2020/12/20 20:37:41;;;;;;;10.80;6.77;;;;;;;4.25;100.00;98896.77;3686762;79;43386;-20
2020/12/20 20:42:48;;;;;;;11.93;7.50;;;;;;;4.28;100.00;98905.90;3685876;80;43406;-20
2020/12/20 20:47:54;;;;;;;12.37;8.20;;;;;;;4.26;100.00;98905.15;3689532;80;44087;-20
2020/12/20 20:52:59;;;;;;;12.47;7.70;;;;;;;4.26;100.00;98909.15;3683203;80;44066;-20
2020/12/20 20:58:07;;;;;;;11.93;7.80;;;;;;;4.22;100.00;98910.81;3717772;77;43707;-19
2020/12/20 21:03:14;;;;;;;11.17;7.33;;;;;;;4.23;100.00;98908.52;3764234;78;43352;-20
2020/12/20 21:08:21;;;;;;;9.93;6.80;;;;;;;4.20;100.00;98906.91;3770988;76;44058;-20
2020/12/20 21:13:27;;;;;;;12.37;7.67;;;;;;;4.19;100.00;98896.36;3763732;78;43685;-20
2020/12/20 21:18:33;;;;;;;14.60;8.37;;;;;;;4.18;100.00;98893.31;3760433;78;44518;-20
2020/12/20 21:23:39;;;;;;;12.20;8.27;;;;;;;4.18;100.00;98903.48;3760228;78;43245;-19
2020/12/20 21:28:46;;;;;;;11.47;7.47;;;;;;;4.16;100.00;98893.44;3760732;78;43673;-22
2020/12/20 21:33:52;;;;;;;13.43;8.57;;;;;;;4.11;100.00;98907.56;3760513;78;44124;-20
2020/12/20 21:38:59;;;;;;;11.53;7.93;;;;;;;4.06;100.00;98913.72;3767045;76;44165;-20
2020/12/20 21:44:05;;;;;;;12.90;8.00;;;;;;;3.98;100.00;98912.42;3764850;79;44071;-19
2020/12/20 21:49:11;;;;;;;13.70;8.67;;;;;;;3.87;100.00;98914.98;3764465;78;43479;-20
2020/12/20 21:54:18;;;;;;;13.67;8.30;;;;;;;3.88;100.00;98924.69;3769837;78;44028;-20
2020/12/20 21:59:24;;;;;;;15.27;9.27;;;;;;;3.93;100.00;98919.91;3772689;77;43532;-20
2020/12/20 22:04:31;;;;;;;15.77;9.07;;;;;;;3.88;100.00;98930.02;3774727;77;43342;-20
2020/12/20 22:09:37;;;;;;;15.83;9.23;;;;;;;3.89;100.00;98929.06;3774411;77;44723;-20
2020/12/20 22:14:43;;;;;;;13.77;8.10;;;;;;;3.83;100.00;98924.14;3783609;76;43183;-20
2020/12/20 22:19:49;;;;;;;14.57;8.77;;;;;;;3.76;100.00;98930.40;3778277;77;44487;-20
2020/12/20 22:24:55;;;;;;;13.63;8.87;;;;;;;3.74;100.00;98929.64;3775961;77;43455;-20
2020/12/20 22:30:02;;;;;;;16.40;9.17;;;;;;;3.73;100.00;98927.06;3777241;77;43446;-19
2020/12/20 22:35:08;;;;;;;13.97;8.53;;;;;;;3.70;100.00;98929.47;3773881;77;43366;-19
2020/12/20 22:40:14;;;;;;;13.50;8.27;;;;;;;3.62;100.00;98919.33;3777036;78;44086;-19
2020/12/20 22:45:19;;;;;;;14.73;9.03;;;;;;;3.65;100.00;98936.91;3782612;76;44089;-19
2020/12/20 22:50:26;;;;;;;14.77;8.40;;;;;;;3.67;100.00;98933.67;3782855;77;43753;-20
2020/12/20 22:55:32;;;;;;;14.07;8.33;;;;;;;3.67;100.00;98941.66;3778031;78;43686;-19
2020/12/20 23:00:38;;;;;;;13.57;8.40;;;;;;;3.66;100.00;98939.95;3768564;77;44062;-20
2020/12/20 23:05:44;;;;;;;13.97;8.23;;;;;;;3.65;100.00;98947.11;3765090;78;44032;-19
2020/12/20 23:10:50;;;;;;;14.73;8.67;;;;;;;3.66;100.00;98940.83;3765636;78;43420;-19
2020/12/20 23:15:56;;;;;;;11.83;7.67;;;;;;;3.66;100.00;98935.50;3765490;76;43694;-19
2020/12/20 23:21:01;;;;;;;14.43;8.40;;;;;;;3.62;100.00;98935.32;3764526;78;44089;-19
2020/12/20 23:26:07;;;;;;;12.77;7.27;;;;;;;3.66;100.00;98943.48;3765440;78;43380;-19
2020/12/20 23:31:17;;;;;;;12.77;7.93;;;;;;;3.67;100.00;98936.33;3767774;77;43900;-20
2020/12/20 23:36:28;;;;;;;11.10;7.30;;;;;;;3.69;100.00;98935.30;3764495;77;43726;-19
2020/12/20 23:41:33;;;;;;;13.03;7.63;;;;;;;3.67;100.00;98925.22;3765669;78;43374;-19
2020/12/20 23:46:39;;;;;;;13.00;7.27;;;;;;;3.66;100.00;98931.96;3768795;76;43323;-19
2020/12/20 23:51:47;;;;;;;11.50;7.30;;;;;;;3.71;100.00;98928.52;3766704;77;43762;-20
2020/12/20 23:56:53;;;;;;;10.80;6.60;;;;;;;3.74;100.00;98930.11;3766447;78;43740;-19
